地図

経路データ

SID SEASON NUMBER BASIN SUBBASIN NAME ISO_TIME NATURE LAT LON WMO_WIND WMO_PRES WMO_AGENCY TRACK_TYPE DIST2LAND LANDFALL IFLAG USA_AGENCY USA_ATCF_ID USA_LAT USA_LON USA_RECORD USA_STATUS USA_WIND USA_PRES USA_SSHS USA_R34_NE USA_R34_SE USA_R34_SW USA_R34_NW USA_R50_NE USA_R50_SE USA_R50_SW USA_R50_NW USA_R64_NE USA_R64_SE USA_R64_SW USA_R64_NW USA_POCI USA_ROCI USA_RMW USA_EYE TOKYO_LAT TOKYO_LON TOKYO_GRADE TOKYO_WIND TOKYO_PRES TOKYO_R50_DIR TOKYO_R50_LONG TOKYO_R50_SHORT TOKYO_R30_DIR TOKYO_R30_LONG TOKYO_R30_SHORT TOKYO_LAND CMA_LAT CMA_LON CMA_CAT CMA_WIND CMA_PRES HKO_LAT HKO_LON HKO_CAT HKO_WIND HKO_PRES NEWDELHI_LAT NEWDELHI_LON NEWDELHI_GRADE NEWDELHI_WIND NEWDELHI_PRES NEWDELHI_CI NEWDELHI_DP NEWDELHI_POCI REUNION_LAT REUNION_LON REUNION_TYPE REUNION_WIND REUNION_PRES REUNION_TNUM REUNION_CI REUNION_RMW REUNION_R34_NE REUNION_R34_SE REUNION_R34_SW REUNION_R34_NW REUNION_R50_NE REUNION_R50_SE REUNION_R50_SW REUNION_R50_NW REUNION_R64_NE REUNION_R64_SE REUNION_R64_SW REUNION_R64_NW BOM_LAT BOM_LON BOM_TYPE BOM_WIND BOM_PRES BOM_TNUM BOM_CI BOM_RMW BOM_R34_NE BOM_R34_SE BOM_R34_SW BOM_R34_NW BOM_R50_NE BOM_R50_SE BOM_R50_SW BOM_R50_NW BOM_R64_NE BOM_R64_SE BOM_R64_SW BOM_R64_NW BOM_ROCI BOM_POCI BOM_EYE BOM_POS_METHOD BOM_PRES_METHOD NADI_LAT NADI_LON NADI_CAT NADI_WIND NADI_PRES WELLINGTON_LAT WELLINGTON_LON WELLINGTON_WIND WELLINGTON_PRES DS824_LAT DS824_LON DS824_STAGE DS824_WIND DS824_PRES TD9636_LAT TD9636_LON TD9636_STAGE TD9636_WIND TD9636_PRES TD9635_LAT TD9635_LON TD9635_WIND TD9635_PRES TD9635_ROCI NEUMANN_LAT NEUMANN_LON NEUMANN_CLASS NEUMANN_WIND NEUMANN_PRES MLC_LAT MLC_LON MLC_CLASS MLC_WIND MLC_PRES USA_GUST BOM_GUST BOM_GUST_PER REUNION_GUST REUNION_GUST_PER USA_SEAHGT USA_SEARAD_NE USA_SEARAD_SE USA_SEARAD_SW USA_SEARAD_NW STORM_SPEED STORM_DIR
1887162N18088 1887 15 NI BB NOT_NAMED 1887-06-11 00:00:00 TS 18.3000 88.3000 main 275 268 _________O____ -1 18.3000 88.3000 TC 34 2 289
1887162N18088 1887 15 NI BB NOT_NAMED 1887-06-11 03:00:00 TS 18.3317 88.2050 main 268 252 _________PO___ -1 18.3475 88.1575 TC 36 18.3000 88.3000 2 2 290
1887162N18088 1887 15 NI BB NOT_NAMED 1887-06-11 06:00:00 TS 18.3825 88.0594 main 252 238 _________OP___ -1 18.4000 88.0000 TC 39 18.3562 88.1485 2 3 289
1887162N18088 1887 15 NI BB NOT_NAMED 1887-06-11 09:00:00 TS 18.4371 87.8890 main 238 216 _________PP___ -1 18.4575 87.8150 TC 42 18.4099 87.9876 2 4 286
1887162N18088 1887 15 NI BB NOT_NAMED 1887-06-11 12:00:00 TS 18.4793 87.7039 main 216 203 _________OP___ -1 18.5000 87.6000 TC 45 18.4587 87.8079 2 4 279
1887162N18088 1887 15 NI BB NOT_NAMED 1887-06-11 15:00:00 TS 18.5000 87.4787 main 203 187 _________PO___ -1 18.5000 87.3574 TC 45 18.5000 87.6000 3 5 275
1887162N18088 1887 15 NI BB NOT_NAMED 1887-06-11 18:00:00 TS 18.5162 87.2297 main 187 168 _________OP___ -1 18.5000 87.1000 TC 45 18.5323 87.3593 3 5 276
1887162N18088 1887 15 NI BB NOT_NAMED 1887-06-11 21:00:00 TS 18.5538 86.9713 main 168 158 _________PP___ -1 18.5500 86.8426 TC 45 18.5577 87.1000 3 5 279
1887162N18088 1887 15 NI BB NOT_NAMED 1887-06-12 00:00:00 TS 18.5896 86.7203 main 158 151 _________OP___ -1 18.6000 86.6000 TC 45 18.5792 86.8406 3 5 276
1887162N18088 1887 15 NI BB NOT_NAMED 1887-06-12 03:00:00 TS 18.6000 86.4925 main 151 144 _________PO___ -1 18.6000 86.3849 TC 45 18.6000 86.6000 3 4 273
1887162N18088 1887 15 NI BB NOT_NAMED 1887-06-12 06:00:00 TS 18.6124 86.3078 main 144 139 _________OP___ -1 18.6000 86.2000 TC 45 18.6247 86.4156 3 3 278
1887162N18088 1887 15 NI BB NOT_NAMED 1887-06-12 09:00:00 TS 18.6460 86.1537 main 139 118 _________PP___ -1 18.6424 86.0575 TC 45 18.6497 86.2499 3 3 284
1887162N18088 1887 15 NI BB NOT_NAMED 1887-06-12 12:00:00 TS 18.6874 85.9922 main 118 109 _________OP___ -1 18.7000 85.9000 TC 45 18.6747 86.0843 3 4 283
1887162N18088 1887 15 NI BB NOT_NAMED 1887-06-12 15:00:00 TS 18.7288 85.7825 main 109 98 _________PO___ -1 18.7575 85.6650 TC 41 18.7000 85.9000 3 4 278
1887162N18088 1887 15 NI BB NOT_NAMED 1887-06-12 18:00:00 TS 18.7441 85.5457 main 90 71 _________OP___ -1 18.8000 85.4000 TC 37 18.6882 85.6913 3 4 271
1887162N18088 1887 15 NI BB NOT_NAMED 1887-06-12 21:00:00 TS 18.7335 85.3157 main 71 47 _________PP___ -1 18.7849 85.1723 TC 33 18.6822 85.4591 3 5 271
1887162N18088 1887 15 NI BB NOT_NAMED 1887-06-13 00:00:00 TS 18.7550 85.0487 main 38 10 _________OP___ -1 18.8000 84.9000 TC 30 18.7100 85.1974 3 6 281
1887162N18088 1887 15 NI BB NOT_NAMED 1887-06-13 03:00:00 TS 18.8488 84.7075 main 10 0 _________PO___ -1 18.8976 84.5149 TC 30 18.8000 84.9000 1 7 291
1887162N18088 1887 15 NI BB NOT_NAMED 1887-06-13 06:00:00 TS 19.0266 84.3164 main 0 0 _________OP___ -1 19.1000 84.1000 TC 30 18.9533 84.5328 1 9 301
1887162N18088 1887 15 NI BB NOT_NAMED 1887-06-13 09:00:00 TS 19.2891 83.9315 main 0 0 _________PP___ -1 19.4050 83.7275 TC 30 19.1732 84.1355 1 9 311
1887162N18088 1887 15 NI BB NOT_NAMED 1887-06-13 12:00:00 TS 19.6282 83.5726 main 0 0 _________OP___ -1 19.8000 83.4000 TC 30 19.4564 83.7453 1 10 319
1887162N18088 1887 15 NI BB NOT_NAMED 1887-06-13 15:00:00 TS 20.0175 83.2600 main 0 0 _________PO___ -1 20.2349 83.1200 TC 30 19.8000 83.4000 1 10 327
1887162N18088 1887 15 NI BB NOT_NAMED 1887-06-13 18:00:00 TS 20.4502 83.0147 main 0 0 _________OP___ -1 20.7000 82.9000 TC 30 20.2003 83.1295 1 10 335
1887162N18088 1887 15 NI BB NOT_NAMED 1887-06-13 21:00:00 TS 20.9061 82.8188 main 0 0 _________PP___ -1 21.1575 82.7274 TC 30 20.6547 82.9102 1 10 340
1887162N18088 1887 15 NI BB NOT_NAMED 1887-06-14 00:00:00 TS 21.3658 82.6679 main 0 0 _________OP___ -1 21.6000 82.6000 TC 30 21.1317 82.7357 1 9 344
1887162N18088 1887 15 NI BB NOT_NAMED 1887-06-14 03:00:00 TS 21.8037 82.5425 main 0 0 _________PO___ -1 22.0075 82.4849 TC 30 21.6000 82.6000 1 9 345
1887162N18088 1887 15 NI BB NOT_NAMED 1887-06-14 06:00:00 TS 22.1949 82.4362 main 0 0 _________OP___ -1 22.4000 82.4000 TC 30 21.9899 82.4725 1 8 347
1887162N18088 1887 15 NI BB NOT_NAMED 1887-06-14 09:00:00 TS 22.5737 82.3586 main 0 0 _________PP___ -1 22.7775 82.3350 TC 30 22.3699 82.3822 1 8 352
1887162N18088 1887 15 NI BB NOT_NAMED 1887-06-14 12:00:00 TS 22.9825 82.3129 main 0 0 _________OP___ -1 23.2000 82.3000 TC 30 22.7649 82.3258 1 9 356
1887162N18088 1887 15 NI BB NOT_NAMED 1887-06-14 15:00:00 TS 23.4638 82.2925 main 0 0 _________PO___ -1 23.7275 82.2850 TC 30 23.2000 82.3000 1 10 0
1887162N18088 1887 15 NI BB NOT_NAMED 1887-06-14 18:00:00 TS 23.9532 82.3004 main 0 0 _________OP___ -1 24.3000 82.3000 TC 30 23.6932 82.3008 1 10 2
1887162N18088 1887 15 NI BB NOT_NAMED 1887-06-14 21:00:00 TS 24.4840 82.3302 main 0 0 _________PP___ -1 24.8575 82.3424 TC 30 24.2351 82.3221 1 11 3
1887162N18088 1887 15 NI BB NOT_NAMED 1887-06-15 00:00:00 TS 25.0063 82.3716 main 0 0 _________OP___ -1 25.4000 82.4000 TC 30 24.8095 82.3574 1 9 4
1887162N18088 1887 15 NI BB NOT_NAMED 1887-06-15 03:00:00 NR 25.4000 82.4000 main 0 __________O___ -1 TC 25.4000 82.4000 1 8 0

IBTrACS Databaseについて

本データベースは、米国NOAAが公開する1842年以降の世界の熱帯低気圧のベストトラックデータアーカイブInternational Best Track Archive for Climate Stewardship (IBTrACS)を、ウェブで閲覧しやすい形式に変換したものです。

最終更新日:2021-10-08